Time;durP1;ratioP1;P1;durP2;ratioP2;P2;SDS_P1;SDS_P2;PMS_P1;PMS_P2;Temp;Humidity;BMP_temperature;BMP_pressure;BME280_temperature;BME280_humidity;BME280_pressure;Samples;Min_cycle;Max_cycle;Signal;HPM_P1;HPM_P2
2021/10/12 10:02:01;;;;;;;25.33;6.45;;;13.10;99.90;;;;;;12156393;27;20857;-77
2021/10/12 10:07:49;;;;;;;17.17;5.07;;;14.40;99.90;;;;;;12120205;28;20131;-78
2021/10/12 10:13:38;;;;;;;16.65;5.20;;;14.70;99.90;;;;;;12118682;27;20125;-77
2021/10/12 10:19:29;;;;;;;20.73;6.13;;;14.90;99.90;;;;;;12118760;27;20469;-76
2021/10/12 10:58:38;;;;;;;17.08;5.63;;;14.30;99.90;;;;;;15146150;22;2301012;-65
2021/10/12 11:04:43;;;;;;;17.70;5.68;;;15.10;99.90;;;;;;14846950;22;20028;-62
2021/10/12 11:10:30;;;;;;;18.27;5.18;;;15.00;99.90;;;;;;14851999;22;20027;-62
2021/10/12 11:16:19;;;;;;;26.88;5.97;;;15.50;99.90;;;;;;14893581;22;20023;-63
2021/10/12 11:22:06;;;;;;;15.30;4.72;;;15.70;99.90;;;;;;14883024;22;20031;-63
2021/10/12 11:27:53;;;;;;;11.93;4.43;;;15.80;99.90;;;;;;14920559;22;20019;-63
2021/10/12 11:33:43;;;;;;;16.65;3.88;;;16.00;99.90;;;;;;14919461;22;20033;-63
2021/10/12 11:39:30;;;;;;;13.85;4.07;;;16.00;99.90;;;;;;14922552;22;20028;-63
2021/10/12 11:45:17;;;;;;;19.02;3.45;;;16.00;99.90;;;;;;14918736;22;20055;-63
2021/10/12 11:51:17;;;;;;;15.00;3.10;;;16.10;99.90;;;;;;14880160;22;20485;-63
2021/10/12 11:57:04;;;;;;;19.73;9.65;;;16.40;99.90;;;;;;14908798;22;20054;-64
2021/10/12 12:02:51;;;;;;;11.75;3.22;;;16.50;99.90;;;;;;14826686;23;20051;-65
2021/10/12 12:08:42;;;;;;;7.93;2.83;;;16.50;99.90;;;;;;14830161;22;20170;-64
2021/10/12 12:14:29;;;;;;;15.30;2.83;;;16.40;99.90;;;;;;14836727;22;20377;-64
2021/10/12 12:20:16;;;;;;;14.68;3.00;;;16.40;99.90;;;;;;14858071;22;20477;-64
2021/10/12 12:26:06;;;;;;;11.90;3.25;;;16.40;99.90;;;;;;14856889;22;20199;-64
2021/10/12 12:31:54;;;;;;;11.25;3.17;;;16.60;99.90;;;;;;14857305;22;20087;-64
2021/10/12 12:37:41;;;;;;;14.77;3.50;;;16.50;99.90;;;;;;14858044;22;20299;-64
2021/10/12 12:43:32;;;;;;;12.63;3.30;;;16.40;99.90;;;;;;14857345;22;20098;-64
2021/10/12 12:49:19;;;;;;;11.98;2.58;;;16.40;99.90;;;;;;14857135;22;20036;-64
2021/10/12 12:55:06;;;;;;;10.38;2.88;;;16.70;99.90;;;;;;14859258;22;20028;-64
2021/10/12 13:01:01;;;;;;;6.88;2.67;;;17.00;99.90;;;;;;14840448;22;20613;-64
2021/10/12 13:06:48;;;;;;;7.97;2.72;;;17.10;99.90;;;;;;14824374;22;20089;-65
2021/10/12 13:12:42;;;;;;;13.32;3.17;;;16.90;99.90;;;;;;14825355;22;20507;-65
2021/10/12 13:18:33;;;;;;;24.80;12.30;;;16.40;99.90;;;;;;14822256;22;20590;-64
2021/10/12 13:24:20;;;;;;;10.55;4.22;;;16.30;99.90;;;;;;14801920;22;20028;-63
2021/10/12 13:30:08;;;;;;;8.75;2.40;;;16.20;99.90;;;;;;14821859;22;20020;-64
2021/10/12 13:35:56;;;;;;;6.78;2.47;;;16.20;99.90;;;;;;14817702;22;20028;-64
2021/10/12 13:41:43;;;;;;;10.70;2.95;;;16.50;99.90;;;;;;14820550;22;20020;-64
2021/10/12 13:47:30;;;;;;;11.35;2.90;;;16.50;99.90;;;;;;14851281;22;20106;-63
2021/10/12 13:53:18;;;;;;;10.43;2.67;;;16.30;99.90;;;;;;14855669;22;20184;-63
2021/10/12 13:59:05;;;;;;;10.23;3.67;;;16.50;99.90;;;;;;14861180;22;20217;-64
2021/10/12 14:04:52;;;;;;;15.98;3.10;;;16.70;99.90;;;;;;14825785;22;20027;-64
2021/10/12 14:10:40;;;;;;;12.35;3.13;;;16.70;99.90;;;;;;14827910;22;20028;-63
2021/10/12 14:16:27;;;;;;;8.18;2.47;;;16.60;99.90;;;;;;14826551;22;20054;-63
2021/10/12 14:22:14;;;;;;;11.18;2.50;;;16.60;99.90;;;;;;14825898;22;20036;-63
2021/10/12 14:28:03;;;;;;;11.95;2.67;;;16.50;99.90;;;;;;14833567;22;20030;-63
2021/10/12 14:33:50;;;;;;;10.73;3.03;;;16.70;99.90;;;;;;14825478;22;20024;-64
2021/10/12 14:39:36;;;;;;;12.07;2.88;;;16.70;99.90;;;;;;14826425;22;20066;-64
2021/10/12 14:45:25;;;;;;;7.50;2.63;;;16.50;99.90;;;;;;14826844;22;20020;-66
2021/10/12 14:51:12;;;;;;;15.57;2.65;;;16.20;99.90;;;;;;14827090;22;20020;-65
2021/10/12 14:57:02;;;;;;;13.18;2.88;;;16.20;99.90;;;;;;14827748;22;20028;-65
2021/10/12 15:02:50;;;;;;;9.20;2.97;;;16.30;99.90;;;;;;14846829;22;20028;-64
2021/10/12 15:08:37;;;;;;;9.60;3.08;;;16.40;99.90;;;;;;14842230;22;20028;-64
2021/10/12 15:14:25;;;;;;;9.73;2.95;;;16.50;99.90;;;;;;14880019;22;20038;-65
2021/10/12 15:20:15;;;;;;;11.15;3.00;;;16.40;99.90;;;;;;14846286;22;20371;-64
2021/10/12 15:26:04;;;;;;;6.47;2.50;;;16.40;99.90;;;;;;14890390;22;20103;-64
2021/10/12 15:31:51;;;;;;;13.63;6.95;;;16.40;99.90;;;;;;14813628;22;20490;-65
2021/10/12 15:37:39;;;;;;;14.75;3.35;;;16.40;99.90;;;;;;14790610;22;20028;-64
2021/10/12 15:43:26;;;;;;;9.82;3.17;;;16.30;99.90;;;;;;14857726;22;20088;-63
2021/10/12 15:49:16;;;;;;;10.98;3.58;;;16.40;99.90;;;;;;14854955;22;20027;-64
2021/10/12 15:55:05;;;;;;;11.75;3.05;;;16.40;99.90;;;;;;14859924;22;20040;-64
2021/10/12 16:00:52;;;;;;;13.57;3.40;;;16.40;99.90;;;;;;14784936;22;20029;-64
2021/10/12 16:06:40;;;;;;;9.00;3.35;;;16.40;99.90;;;;;;14759025;23;20355;-64
2021/10/12 16:12:28;;;;;;;14.10;3.22;;;16.50;99.90;;;;;;14758537;23;20025;-64
2021/10/12 16:24:21;;;;;;;9.40;3.17;;;16.50;99.90;;;;;;14773703;23;20028;-65
2021/10/12 16:30:12;;;;;;;7.95;3.30;;;16.30;99.90;;;;;;14782023;22;20028;-67
2021/10/12 16:35:59;;;;;;;17.27;3.65;;;16.20;99.90;;;;;;14782446;23;20084;-65
2021/10/12 16:41:47;;;;;;;13.85;3.90;;;16.10;99.90;;;;;;14782893;22;20086;-64
2021/10/12 16:47:35;;;;;;;9.75;3.45;;;16.10;99.90;;;;;;14784386;22;20100;-64
2021/10/12 16:53:23;;;;;;;10.73;3.40;;;16.00;99.90;;;;;;14783668;22;20025;-64
2021/10/12 16:59:12;;;;;;;11.88;3.67;;;16.00;99.90;;;;;;14800864;22;20034;-64
2021/10/12 17:05:05;;;;;;;12.27;4.43;;;15.90;99.90;;;;;;14779906;22;20032;-64
2021/10/12 17:10:52;;;;;;;13.03;4.77;;;15.80;99.90;;;;;;14792600;22;20020;-63
2021/10/12 17:16:40;;;;;;;16.13;5.65;;;15.90;99.90;;;;;;14757778;22;20348;-64
2021/10/12 17:22:28;;;;;;;12.00;5.13;;;15.80;99.90;;;;;;14823773;22;20030;-65
2021/10/12 17:28:24;;;;;;;17.20;5.45;;;15.70;99.90;;;;;;14793902;22;20036;-64
2021/10/12 17:34:11;;;;;;;18.67;5.55;;;15.50;99.90;;;;;;14792943;22;20024;-65
2021/10/12 17:40:00;;;;;;;19.52;4.13;;;15.50;99.90;;;;;;14818021;22;20097;-64
2021/10/12 17:45:47;;;;;;;15.00;4.30;;;15.50;99.90;;;;;;14854306;22;20047;-65
2021/10/12 17:51:34;;;;;;;16.70;4.55;;;15.50;99.90;;;;;;14853929;22;20100;-65
2021/10/12 17:57:22;;;;;;;11.27;4.20;;;15.40;99.90;;;;;;14843794;22;20108;-66
2021/10/12 18:03:17;;;;;;;17.02;5.30;;;15.40;99.90;;;;;;14774344;23;20112;-65
2021/10/12 18:09:04;;;;;;;14.50;5.03;;;15.30;99.90;;;;;;14780391;22;20025;-66
2021/10/12 18:14:52;;;;;;;13.32;4.47;;;15.20;99.90;;;;;;14782893;22;20028;-65
2021/10/12 18:20:41;;;;;;;12.10;4.22;;;15.20;99.90;;;;;;14783418;22;20044;-65
2021/10/12 18:26:32;;;;;;;17.45;5.20;;;15.20;99.90;;;;;;14781526;22;20359;-65
2021/10/12 18:32:20;;;;;;;14.52;5.68;;;15.10;99.90;;;;;;14782061;22;20099;-65
2021/10/12 18:38:07;;;;;;;20.77;5.85;;;15.10;99.90;;;;;;14713212;22;20092;-65
